createdAt,value
2022-11-02T00:02:19.132Z,88.18
2022-11-02T00:04:49.632Z,88.22
2022-11-02T00:07:20.024Z,88.29
2022-11-02T00:09:50.424Z,88.14
2022-11-02T00:12:20.813Z,87.60
2022-11-02T00:14:51.189Z,87.86
2022-11-02T00:17:21.919Z,87.80
2022-11-02T00:19:53.879Z,87.76
2022-11-02T00:22:24.603Z,87.77
2022-11-02T00:24:55.086Z,88.00
2022-11-02T00:27:25.648Z,88.11
2022-11-02T00:29:56.019Z,88.12
2022-11-02T00:32:26.979Z,88.28
2022-11-02T00:34:57.352Z,88.13
2022-11-02T00:37:27.800Z,88.03
2022-11-02T00:39:58.210Z,87.95
2022-11-02T00:42:28.634Z,87.80
2022-11-02T00:44:59.025Z,87.66
2022-11-02T00:47:29.821Z,87.86
2022-11-02T00:50:00.331Z,87.80
2022-11-02T00:52:31.390Z,87.62
2022-11-02T00:55:01.887Z,87.76
2022-11-02T00:57:32.292Z,87.72
2022-11-02T01:00:02.777Z,87.72
2022-11-02T01:02:34.810Z,87.50
2022-11-02T01:05:06.909Z,87.37
2022-11-02T01:07:37.589Z,87.14
2022-11-02T01:10:10.651Z,87.22
2022-11-02T01:12:41.830Z,87.06
2022-11-02T01:15:13.451Z,86.46
2022-11-02T01:17:44.227Z,86.68
2022-11-02T01:20:14.762Z,86.39
2022-11-02T01:22:45.113Z,86.61
2022-11-02T01:25:15.663Z,86.27
2022-11-02T01:27:46.707Z,86.19
2022-11-02T01:30:17.352Z,85.93
2022-11-02T01:32:47.813Z,85.67
2022-11-02T01:35:18.260Z,85.70
2022-11-02T01:37:48.757Z,85.62
2022-11-02T01:40:19.174Z,85.23
2022-11-02T01:42:49.583Z,84.67
2022-11-02T01:45:20.023Z,84.94
2022-11-02T01:47:50.537Z,84.89
2022-11-02T01:50:23.966Z,84.83
2022-11-02T01:52:55.425Z,85.16
2022-11-02T01:55:29.398Z,85.10
2022-11-02T01:58:05.538Z,84.84
2022-11-02T02:00:38.015Z,84.93
2022-11-02T02:03:18.228Z,84.95
2022-11-02T02:05:58.001Z,84.86
2022-11-02T02:08:29.155Z,84.99
2022-11-02T02:11:00.314Z,85.18
2022-11-02T02:13:30.788Z,85.14
2022-11-02T02:16:19.235Z,85.20
2022-11-02T02:18:52.803Z,84.89
2022-11-02T02:21:28.923Z,84.75
2022-11-02T02:24:16.987Z,84.40
2022-11-02T02:27:08.423Z,84.34
2022-11-02T02:29:41.798Z,84.29
2022-11-02T02:32:23.852Z,84.26
2022-11-02T02:34:57.608Z,83.99
2022-11-02T02:37:33.894Z,84.24
2022-11-02T02:40:07.299Z,83.73
2022-11-02T02:42:49.920Z,83.95
2022-11-02T02:45:32.399Z,83.75
2022-11-02T02:48:14.917Z,83.46
2022-11-02T02:50:50.544Z,83.27
2022-11-02T02:53:27.276Z,83.09
2022-11-02T02:55:59.720Z,82.97
2022-11-02T02:58:36.080Z,83.07
2022-11-02T03:01:08.184Z,82.90
2022-11-02T03:03:40.109Z,82.89
2022-11-02T03:06:22.486Z,82.98
2022-11-02T03:08:55.938Z,82.61
2022-11-02T03:11:26.542Z,82.88
2022-11-02T03:14:23.674Z,82.83
2022-11-02T03:17:06.286Z,83.02
2022-11-02T03:19:42.639Z,82.63
2022-11-02T03:22:31.323Z,82.67
2022-11-02T03:25:07.669Z,82.84
2022-11-02T03:27:44.090Z,82.66
2022-11-02T03:30:17.791Z,82.66
2022-11-02T03:33:01.484Z,82.71
2022-11-02T03:35:43.809Z,82.65
2022-11-02T03:38:20.093Z,82.55
2022-11-02T03:40:55.543Z,82.76
2022-11-02T03:43:26.723Z,82.63
2022-11-02T03:45:59.647Z,82.75
2022-11-02T03:48:33.040Z,82.58
2022-11-02T03:51:06.434Z,82.74
2022-11-02T03:53:51.918Z,82.71
2022-11-02T03:56:28.303Z,82.67
2022-11-02T03:58:59.359Z,82.23
2022-11-02T04:01:32.364Z,82.15
2022-11-02T04:04:05.318Z,81.99
2022-11-02T04:06:36.276Z,82.29
2022-11-02T04:09:07.129Z,82.63
2022-11-02T04:11:54.527Z,82.60
2022-11-02T04:14:40.217Z,82.74
2022-11-02T04:20:02.755Z,82.93
2022-11-02T04:22:51.152Z,82.99
2022-11-02T04:25:27.002Z,83.01
2022-11-02T04:27:57.497Z,82.84
2022-11-02T04:30:27.877Z,82.72
2022-11-02T04:33:16.193Z,82.70
2022-11-02T04:35:46.552Z,82.90
2022-11-02T04:38:35.262Z,82.93
2022-11-02T04:41:24.202Z,82.95
2022-11-02T04:43:55.330Z,82.82
2022-11-02T04:46:28.748Z,82.97
2022-11-02T04:48:59.308Z,83.11
2022-11-02T04:51:30.918Z,82.88
2022-11-02T04:54:01.612Z,82.44
2022-11-02T04:56:32.206Z,82.61
2022-11-02T04:59:02.688Z,82.71
2022-11-02T05:01:33.283Z,82.48
2022-11-02T05:04:03.926Z,82.82
2022-11-02T05:06:34.394Z,82.79
2022-11-02T05:09:05.017Z,83.08
2022-11-02T05:11:35.321Z,83.05
2022-11-02T05:14:15.232Z,83.00
2022-11-02T05:16:42.255Z,82.94
2022-11-02T05:19:12.597Z,83.02
2022-11-02T05:21:42.886Z,82.75
2022-11-02T05:24:13.321Z,83.22
2022-11-02T05:26:43.686Z,83.26
2022-11-02T05:29:13.992Z,82.81
2022-11-02T05:31:44.314Z,82.80
2022-11-02T05:34:14.726Z,83.05
2022-11-02T05:36:46.720Z,83.04
2022-11-02T05:39:17.112Z,83.11
2022-11-02T05:41:47.412Z,83.09
2022-11-02T05:44:17.720Z,83.25
2022-11-02T05:46:48.123Z,83.10
2022-11-02T05:49:18.506Z,82.97
2022-11-02T05:51:49.518Z,82.78
2022-11-02T05:54:19.891Z,82.87
2022-11-02T05:56:51.790Z,83.08
2022-11-02T05:59:22.168Z,83.08
2022-11-02T06:01:52.761Z,83.00
2022-11-02T06:04:23.361Z,83.00
2022-11-02T06:06:53.774Z,82.90
2022-11-02T06:09:24.064Z,82.73
2022-11-02T06:11:54.441Z,82.77
2022-11-02T06:14:24.687Z,82.91
2022-11-02T06:16:56.638Z,82.82
2022-11-02T06:19:27.004Z,83.08
2022-11-02T06:21:57.988Z,82.70
2022-11-02T06:24:28.377Z,82.67
2022-11-02T06:26:58.848Z,82.63
2022-11-02T06:29:29.237Z,82.35
2022-11-02T06:31:59.758Z,82.32
2022-11-02T06:34:30.327Z,82.00
2022-11-02T06:37:00.639Z,82.09
2022-11-02T06:39:30.991Z,82.18
2022-11-02T06:42:01.332Z,82.16
2022-11-02T06:44:31.655Z,81.98
2022-11-02T06:47:02.134Z,81.99
2022-11-02T06:49:32.652Z,81.50
2022-11-02T06:52:02.960Z,81.61
2022-11-02T06:54:33.316Z,81.68
2022-11-02T06:57:03.632Z,81.98
2022-11-02T06:59:33.965Z,81.50
2022-11-02T07:02:04.511Z,81.37
2022-11-02T07:04:34.985Z,81.36
2022-11-02T07:07:05.396Z,81.19
2022-11-02T07:09:37.660Z,81.29
2022-11-02T07:12:08.107Z,80.99
2022-11-02T07:14:38.409Z,80.79
2022-11-02T07:17:08.724Z,80.70
2022-11-02T07:19:39.009Z,80.79
2022-11-02T07:22:09.237Z,80.63
2022-11-02T07:24:39.627Z,80.55
2022-11-02T07:27:10.014Z,80.33
2022-11-02T07:29:40.425Z,80.31
2022-11-02T07:32:10.832Z,80.18
2022-11-02T07:34:41.291Z,80.00
2022-11-02T07:37:11.680Z,79.71
2022-11-02T07:39:42.053Z,79.21
2022-11-02T07:42:12.422Z,79.06
2022-11-02T07:44:42.779Z,78.43
2022-11-02T07:47:13.165Z,77.82
2022-11-02T07:49:43.583Z,77.75
2022-11-02T07:52:14.509Z,76.99
2022-11-02T07:54:45.046Z,76.61
2022-11-02T07:57:15.567Z,76.98
2022-11-02T07:59:46.172Z,76.90
2022-11-02T08:02:18.179Z,76.64
2022-11-02T08:04:48.566Z,76.47
2022-11-02T08:07:18.949Z,76.77
2022-11-02T08:09:49.361Z,76.78
2022-11-02T08:12:19.841Z,76.64
2022-11-02T08:14:50.218Z,76.70
2022-11-02T08:17:21.680Z,76.61
2022-11-02T08:19:52.045Z,76.79
2022-11-02T08:22:22.408Z,75.99
2022-11-02T08:24:52.851Z,75.75
2022-11-02T08:27:23.429Z,75.48
2022-11-02T08:29:53.857Z,76.06
2022-11-02T08:32:24.250Z,76.19
2022-11-02T08:34:54.475Z,76.65
2022-11-02T08:37:24.849Z,77.23
2022-11-02T08:39:55.209Z,77.47
2022-11-02T08:42:26.362Z,77.42
2022-11-02T08:44:56.699Z,77.36
2022-11-02T08:47:27.051Z,77.20
2022-11-02T08:49:57.488Z,77.07
2022-11-02T08:52:27.867Z,77.52
2022-11-02T08:54:58.287Z,77.86
2022-11-02T08:57:28.796Z,77.49
2022-11-02T08:59:59.361Z,77.10
2022-11-02T09:02:29.863Z,75.57
2022-11-02T09:05:00.243Z,70.10
2022-11-02T09:07:30.769Z,67.32
2022-11-02T09:10:01.193Z,65.92
2022-11-02T09:12:32.538Z,67.04
2022-11-02T09:15:03.031Z,67.08
2022-11-02T09:17:33.571Z,63.47
2022-11-02T09:20:04.032Z,58.83
2022-11-02T09:22:34.370Z,53.97
2022-11-02T09:25:04.952Z,51.77
2022-11-02T09:27:35.367Z,52.16
2022-11-02T09:30:06.604Z,53.36
2022-11-02T09:32:37.188Z,55.42
2022-11-02T09:35:10.803Z,59.57
2022-11-02T09:37:45.776Z,62.10
2022-11-02T09:40:17.792Z,60.88
2022-11-02T09:42:53.004Z,58.18
2022-11-02T09:45:24.121Z,56.48
2022-11-02T09:48:17.769Z,58.15
2022-11-02T09:50:44.622Z,61.09
2022-11-02T09:53:18.286Z,59.36
2022-11-02T09:55:54.171Z,55.64
2022-11-02T09:58:27.667Z,58.55
2022-11-02T10:01:02.067Z,61.50
2022-11-02T10:03:38.241Z,60.52
2022-11-02T10:06:23.548Z,62.46
2022-11-02T10:09:11.859Z,55.85
2022-11-02T10:11:54.002Z,51.43
2022-11-02T10:14:33.646Z,45.15
2022-11-02T10:17:19.054Z,46.61
2022-11-02T10:19:58.409Z,55.72
2022-11-02T10:22:31.712Z,58.63
2022-11-02T10:25:05.195Z,59.20
2022-11-02T10:27:40.220Z,60.63
2022-11-02T10:30:18.199Z,61.81
2022-11-02T10:32:54.003Z,51.73
2022-11-02T10:35:45.850Z,50.47
2022-11-02T10:38:20.451Z,53.41
2022-11-02T10:41:02.634Z,54.36
2022-11-02T10:43:42.278Z,58.18
2022-11-02T10:46:38.137Z,54.24
2022-11-02T10:49:38.274Z,48.86
2022-11-02T10:52:11.751Z,52.11
2022-11-02T10:54:42.230Z,56.00
2022-11-02T10:57:15.130Z,57.23
2022-11-02T10:59:45.772Z,56.68
2022-11-02T11:02:22.772Z,55.38
2022-11-02T11:04:54.631Z,54.60
2022-11-02T11:07:28.308Z,53.31
2022-11-02T11:09:58.985Z,53.04
2022-11-02T11:12:35.041Z,54.82
2022-11-02T11:20:34.358Z,56.62
2022-11-02T11:23:27.265Z,59.33
2022-11-02T11:26:06.610Z,59.72
2022-11-02T11:28:54.873Z,60.61
2022-11-02T11:31:26.226Z,61.91
2022-11-02T11:33:59.926Z,61.25
2022-11-02T11:36:35.735Z,62.10
2022-11-02T11:39:21.220Z,61.85
2022-11-02T11:41:51.732Z,62.07
2022-11-02T11:44:23.439Z,62.97
2022-11-02T11:46:56.818Z,62.97
2022-11-02T11:49:48.061Z,63.33
2022-11-02T11:52:04.595Z,60.18
2022-11-02T11:54:35.779Z,58.20
2022-11-02T11:57:24.064Z,58.63
2022-11-02T11:59:56.261Z,58.07
2022-11-02T12:02:32.258Z,59.57
2022-11-02T12:05:17.327Z,60.47
2022-11-02T12:08:08.304Z,60.20
2022-11-02T12:10:47.790Z,61.06
2022-11-02T12:13:42.176Z,60.54
2022-11-02T12:16:24.001Z,58.85
2022-11-02T12:19:09.258Z,60.51
2022-11-02T12:22:15.737Z,60.69
2022-11-02T12:25:10.333Z,60.07
2022-11-02T12:27:55.948Z,61.60
2022-11-02T12:30:35.433Z,61.67
2022-11-02T12:33:28.309Z,61.10
2022-11-02T12:36:19.241Z,60.72
2022-11-02T12:38:55.642Z,58.71
2022-11-02T12:41:36.535Z,54.63
2022-11-02T12:44:33.792Z,55.02
2022-11-02T12:47:16.665Z,54.01
2022-11-02T12:50:08.662Z,53.01
2022-11-02T12:52:58.625Z,51.82
2022-11-02T12:55:38.497Z,50.62
2022-11-02T12:58:28.246Z,49.49
2022-11-02T13:01:13.674Z,49.30
2022-11-02T13:04:02.550Z,48.86
2022-11-02T13:06:41.620Z,47.30
2022-11-02T13:09:23.998Z,49.32
2022-11-02T13:12:06.346Z,50.92
2022-11-02T13:14:43.113Z,51.62
2022-11-02T13:17:27.818Z,50.87
2022-11-02T13:20:22.035Z,49.33
2022-11-02T13:22:58.188Z,48.25
2022-11-02T13:25:34.209Z,47.77
2022-11-02T13:28:13.744Z,48.08
2022-11-02T13:30:45.521Z,50.39
2022-11-02T13:33:37.198Z,51.86
2022-11-02T13:36:08.186Z,53.02
2022-11-02T13:38:53.813Z,53.43
2022-11-02T13:41:50.075Z,54.10
2022-11-02T13:44:44.146Z,54.22
2022-11-02T13:47:49.496Z,54.36
2022-11-02T13:50:22.684Z,53.66
2022-11-02T13:53:08.786Z,53.32
2022-11-02T13:55:46.010Z,53.51
2022-11-02T13:58:38.047Z,53.08
2022-11-02T14:01:11.873Z,53.26
2022-11-02T14:03:53.171Z,53.02
2022-11-02T14:06:25.577Z,53.96
2022-11-02T14:09:05.162Z,54.78
2022-11-02T14:11:44.749Z,55.18
2022-11-02T14:14:24.196Z,55.52
2022-11-02T14:16:58.480Z,55.99
2022-11-02T14:19:35.142Z,56.20
2022-11-02T14:22:11.756Z,56.69
2022-11-02T14:24:45.202Z,56.97
2022-11-02T14:27:20.149Z,58.56
2022-11-02T14:29:55.944Z,59.10
2022-11-02T14:32:41.916Z,58.18
2022-11-02T14:35:33.945Z,58.66
2022-11-02T14:38:10.375Z,58.28
2022-11-02T14:40:56.112Z,57.77
2022-11-02T14:43:35.897Z,56.89
2022-11-02T14:46:09.686Z,56.80
2022-11-02T14:48:55.141Z,55.80
2022-11-02T14:51:28.599Z,56.03
2022-11-02T14:54:10.945Z,54.97
2022-11-02T14:57:05.934Z,54.89
2022-11-02T14:59:39.603Z,55.82
2022-11-02T15:02:13.097Z,54.91
2022-11-02T15:04:51.960Z,55.43
2022-11-02T15:07:25.541Z,54.48
2022-11-02T15:09:59.146Z,54.68
2022-11-02T15:12:42.945Z,54.95
2022-11-02T15:15:31.334Z,54.86
2022-11-02T15:18:22.026Z,55.20
2022-11-02T15:21:18.219Z,54.85
2022-11-02T15:24:00.136Z,55.22
2022-11-02T15:26:41.646Z,55.27
2022-11-02T15:29:10.547Z,55.46
2022-11-02T15:31:42.700Z,55.71
2022-11-02T15:34:17.597Z,55.31
2022-11-02T15:36:48.644Z,56.50
2022-11-02T15:39:19.740Z,56.60
2022-11-02T15:42:05.193Z,56.57
2022-11-02T15:44:57.006Z,56.64
2022-11-02T15:47:48.800Z,57.46
2022-11-02T15:50:43.037Z,57.02
2022-11-02T15:53:34.799Z,57.56
2022-11-02T15:56:17.285Z,57.82
2022-11-02T15:58:59.349Z,58.07
2022-11-02T16:01:30.323Z,58.29
2022-11-02T16:04:06.298Z,58.31
2022-11-02T16:06:44.894Z,58.42
2022-11-02T16:09:33.405Z,58.70
2022-11-02T16:12:16.869Z,58.96
2022-11-02T16:14:57.645Z,58.72
2022-11-02T16:17:32.786Z,59.32
2022-11-02T16:20:22.733Z,59.60
2022-11-02T16:23:07.957Z,59.18
2022-11-02T16:25:44.917Z,59.71
2022-11-02T16:28:29.877Z,59.85
2022-11-02T16:31:18.368Z,60.20
2022-11-02T16:33:47.458Z,60.27
2022-11-02T16:36:21.097Z,60.86
2022-11-02T16:39:00.356Z,60.91
2022-11-02T16:41:32.596Z,60.34
2022-11-02T16:44:17.990Z,60.42
2022-11-02T16:46:56.985Z,60.51
2022-11-02T16:49:29.232Z,60.11
2022-11-02T16:52:17.581Z,60.67
2022-11-02T16:54:48.632Z,60.37
2022-11-02T16:57:25.101Z,60.64
2022-11-02T17:00:01.044Z,60.57
2022-11-02T17:02:39.993Z,60.43
2022-11-02T17:05:22.384Z,60.60
2022-11-02T17:08:03.835Z,60.97
2022-11-02T17:10:36.248Z,61.22
2022-11-02T17:13:09.062Z,60.81
2022-11-02T17:15:40.962Z,61.50
2022-11-02T17:18:14.593Z,61.28
2022-11-02T17:20:45.010Z,62.00
2022-11-02T17:23:33.495Z,61.33
2022-11-02T17:26:25.053Z,62.08
2022-11-02T17:29:04.214Z,61.98
2022-11-02T17:31:41.304Z,62.00
2022-11-02T17:34:16.622Z,62.45
2022-11-02T17:36:52.194Z,62.32
2022-11-02T17:39:22.571Z,61.83
2022-11-02T17:42:15.179Z,61.71
2022-11-02T17:44:45.582Z,62.07
2022-11-02T17:47:18.929Z,62.37
2022-11-02T17:49:49.309Z,62.29
2022-11-02T17:52:19.718Z,62.48
2022-11-02T17:54:50.142Z,63.03
2022-11-02T17:57:20.925Z,62.60
2022-11-02T17:59:52.079Z,63.21
2022-11-02T18:02:22.703Z,63.48
2022-11-02T18:04:53.116Z,63.49
2022-11-02T18:07:23.509Z,63.09
2022-11-02T18:09:53.816Z,63.34
2022-11-02T18:12:24.152Z,63.44
2022-11-02T18:14:54.539Z,63.31
2022-11-02T18:17:24.943Z,63.43
2022-11-02T18:19:55.523Z,63.58
2022-11-02T18:22:25.927Z,63.67
2022-11-02T18:24:56.294Z,63.47
2022-11-02T18:27:28.760Z,63.48
2022-11-02T18:29:58.685Z,62.87
2022-11-02T18:32:29.192Z,63.91
2022-11-02T18:34:59.748Z,63.86
2022-11-02T18:37:30.437Z,64.40
2022-11-02T18:40:00.888Z,64.04
2022-11-02T18:42:31.533Z,63.98
2022-11-02T18:45:01.913Z,64.79
2022-11-02T18:47:32.654Z,64.54
2022-11-02T18:50:03.300Z,64.79
2022-11-02T18:52:34.053Z,65.16
2022-11-02T18:55:05.280Z,64.65
2022-11-02T18:57:36.134Z,64.93
2022-11-02T19:00:07.340Z,64.99
2022-11-02T19:02:40.927Z,65.30
2022-11-02T19:05:13.027Z,65.55
2022-11-02T19:08:01.723Z,65.20
2022-11-02T19:10:32.776Z,65.44
2022-11-02T19:13:04.461Z,65.79
2022-11-02T19:15:41.296Z,66.39
2022-11-02T19:18:07.536Z,67.09
2022-11-02T19:20:37.771Z,66.01
2022-11-02T19:23:09.937Z,67.59
2022-11-02T19:25:40.547Z,67.59
2022-11-02T19:28:10.960Z,68.09
2022-11-02T19:30:41.348Z,68.75
2022-11-02T19:33:11.735Z,67.99
2022-11-02T19:35:42.143Z,68.87
2022-11-02T19:38:12.544Z,68.61
2022-11-02T19:40:42.929Z,68.85
2022-11-02T19:43:13.409Z,69.84
2022-11-02T19:45:44.973Z,70.10
2022-11-02T19:48:15.371Z,70.01
2022-11-02T19:50:45.764Z,70.51
2022-11-02T19:53:16.160Z,70.56
2022-11-02T19:55:53.763Z,70.53
2022-11-02T19:58:24.141Z,70.63
2022-11-02T20:00:54.739Z,69.80
2022-11-02T20:03:25.417Z,70.60
2022-11-02T20:05:58.898Z,71.23
2022-11-02T20:08:29.291Z,71.62
2022-11-02T20:11:11.854Z,71.30
2022-11-02T20:13:44.393Z,71.46
2022-11-02T20:16:17.723Z,71.15
2022-11-02T20:18:50.322Z,69.12
2022-11-02T20:21:28.299Z,68.98
2022-11-02T20:23:56.590Z,69.86
2022-11-02T20:26:31.275Z,71.11
2022-11-02T20:29:03.562Z,71.02
2022-11-02T20:31:36.913Z,69.79
2022-11-02T20:34:09.574Z,69.33
2022-11-02T20:36:39.972Z,69.56
2022-11-02T20:39:10.969Z,69.70
2022-11-02T20:41:41.442Z,69.69
2022-11-02T20:44:11.810Z,70.98
2022-11-02T20:46:42.953Z,71.68
2022-11-02T20:49:22.435Z,71.01
2022-11-02T20:51:46.268Z,70.60
2022-11-02T20:54:18.381Z,69.86
2022-11-02T20:56:49.750Z,70.33
2022-11-02T20:59:20.159Z,72.01
2022-11-02T21:01:50.619Z,72.26
2022-11-02T21:04:21.882Z,72.15
2022-11-02T21:06:52.591Z,71.33
2022-11-02T21:09:23.249Z,71.95
2022-11-02T21:12:11.876Z,72.30
2022-11-02T21:14:42.354Z,72.42
2022-11-02T21:17:12.839Z,72.33
2022-11-02T21:19:43.284Z,71.32
2022-11-02T21:22:17.957Z,72.25
2022-11-02T21:24:48.330Z,70.90
2022-11-02T21:27:21.541Z,71.56
2022-11-02T21:29:51.115Z,71.31
2022-11-02T21:32:21.481Z,71.92
2022-11-02T21:34:51.789Z,73.19
2022-11-02T21:37:22.176Z,71.66
2022-11-02T21:39:52.478Z,71.67
2022-11-02T21:42:23.124Z,71.85
2022-11-02T21:44:53.549Z,71.98
2022-11-02T21:47:23.893Z,72.12
2022-11-02T21:49:54.278Z,72.43
2022-11-02T21:52:24.768Z,72.61
2022-11-02T21:54:55.208Z,72.69
2022-11-02T21:57:25.810Z,72.61
2022-11-02T21:59:56.195Z,72.43
2022-11-02T22:02:26.829Z,72.58
2022-11-02T22:04:57.474Z,73.13
2022-11-02T22:07:27.847Z,73.38
2022-11-02T22:09:58.171Z,73.25
2022-11-02T22:12:46.468Z,73.25
2022-11-02T22:15:16.874Z,73.43
2022-11-02T22:17:50.043Z,72.80
2022-11-02T22:20:19.252Z,72.97
2022-11-02T22:22:49.631Z,72.96
2022-11-02T22:25:19.946Z,72.83
2022-11-02T22:27:50.342Z,73.29
2022-11-02T22:30:20.718Z,73.86
2022-11-02T22:32:51.089Z,73.09
2022-11-02T22:35:21.406Z,73.03
2022-11-02T22:38:09.808Z,73.56
2022-11-02T22:40:40.112Z,73.95
2022-11-02T22:43:11.091Z,74.29
2022-11-02T22:45:41.826Z,74.39
2022-11-02T22:48:12.453Z,74.63
2022-11-02T22:50:44.687Z,73.15
2022-11-02T22:53:15.063Z,73.56
2022-11-02T22:55:45.402Z,73.16
2022-11-02T22:58:15.984Z,73.11
2022-11-02T23:00:47.557Z,73.34
2022-11-02T23:03:17.938Z,73.81
2022-11-02T23:05:48.667Z,73.55
2022-11-02T23:08:19.927Z,73.55
2022-11-02T23:11:13.416Z,73.72
2022-11-02T23:13:44.107Z,73.80
2022-11-02T23:16:21.461Z,74.25
2022-11-02T23:19:30.514Z,74.55
2022-11-02T23:22:19.304Z,74.65
2022-11-02T23:25:09.480Z,75.34
2022-11-02T23:28:00.687Z,75.66
2022-11-02T23:30:51.889Z,75.63
2022-11-02T23:33:24.338Z,75.59
2022-11-02T23:36:15.634Z,75.89
2022-11-02T23:39:06.602Z,75.85
2022-11-02T23:41:41.570Z,76.12
2022-11-02T23:44:12.581Z,76.18
2022-11-02T23:46:44.929Z,76.26
2022-11-02T23:49:17.691Z,76.67
2022-11-02T23:52:06.163Z,76.69
2022-11-02T23:54:54.191Z,76.50
2022-11-02T23:57:25.573Z,76.94
2022-11-02T23:59:56.220Z,76.70
